createdAt,value
2023-12-16T00:00:00.828Z,2.25
2023-12-16T00:02:27.714Z,3.83
2023-12-16T00:04:54.405Z,2.30
2023-12-16T00:07:22.227Z,1.83
2023-12-16T00:09:48.982Z,1.52
2023-12-16T00:12:17.177Z,1.40
2023-12-16T00:14:44.129Z,1.58
2023-12-16T00:17:11.799Z,1.50
2023-12-16T00:19:38.583Z,1.50
2023-12-16T00:22:06.488Z,1.35
2023-12-16T00:24:33.091Z,1.38
2023-12-16T00:26:59.727Z,1.20
2023-12-16T00:29:27.419Z,1.40
2023-12-16T00:31:53.995Z,1.10
2023-12-16T00:34:20.778Z,1.10
2023-12-16T00:36:48.486Z,1.55
2023-12-16T00:39:15.139Z,1.25
2023-12-16T00:41:42.737Z,1.10
2023-12-16T00:44:09.302Z,1.10
2023-12-16T00:46:35.911Z,1.30
2023-12-16T00:49:03.759Z,2.83
2023-12-16T00:51:30.452Z,3.03
2023-12-16T00:53:58.063Z,1.05
2023-12-16T00:56:25.643Z,1.10
2023-12-16T00:58:52.253Z,0.85
2023-12-16T01:01:18.872Z,1.00
2023-12-16T01:03:46.623Z,0.77
2023-12-16T01:06:13.245Z,0.82
2023-12-16T01:08:39.816Z,0.90
2023-12-16T01:11:07.576Z,1.00
2023-12-16T01:13:35.201Z,0.90
2023-12-16T01:16:01.766Z,1.00
2023-12-16T01:18:28.466Z,0.82
2023-12-16T01:20:57.475Z,0.98
2023-12-16T01:25:51.598Z,1.00
2023-12-16T01:28:18.215Z,1.05
2023-12-16T01:30:44.849Z,1.10
2023-12-16T01:33:12.546Z,0.90
2023-12-16T01:35:40.158Z,1.10
2023-12-16T01:38:07.961Z,1.45
2023-12-16T01:40:34.662Z,1.13
2023-12-16T01:43:06.361Z,0.90
2023-12-16T01:45:32.946Z,0.90
2023-12-16T01:48:01.582Z,1.20
2023-12-16T01:50:28.503Z,1.00
2023-12-16T01:52:56.528Z,0.90
2023-12-16T01:55:24.392Z,1.00
2023-12-16T01:57:51.525Z,1.88
2023-12-16T02:00:18.614Z,1.50
2023-12-16T02:02:46.707Z,1.05
2023-12-16T02:05:13.469Z,0.80
2023-12-16T02:07:41.405Z,0.93
2023-12-16T02:10:08.481Z,0.95
2023-12-16T02:12:36.206Z,0.80
2023-12-16T02:15:03.869Z,1.00
2023-12-16T02:17:31.543Z,1.02
2023-12-16T02:19:58.316Z,1.10
2023-12-16T02:22:25.060Z,0.95
2023-12-16T02:24:53.759Z,1.10
2023-12-16T02:27:20.376Z,0.95
2023-12-16T02:29:46.937Z,1.20
2023-12-16T02:32:14.617Z,1.20
2023-12-16T02:34:41.268Z,1.05
2023-12-16T02:37:09.001Z,1.02
2023-12-16T02:39:36.813Z,0.95
2023-12-16T02:42:03.512Z,1.17
2023-12-16T02:44:31.127Z,0.93
2023-12-16T02:46:57.683Z,1.10
2023-12-16T02:49:25.389Z,1.00
2023-12-16T02:51:53.074Z,1.02
2023-12-16T02:54:19.679Z,0.93
2023-12-16T02:56:46.273Z,0.95
2023-12-16T02:59:13.914Z,1.00
2023-12-16T03:01:40.584Z,0.95
2023-12-16T03:04:08.304Z,0.90
2023-12-16T03:06:34.906Z,0.90
2023-12-16T03:09:01.475Z,0.93
2023-12-16T03:11:29.104Z,0.82
2023-12-16T03:13:55.686Z,2.45
2023-12-16T03:16:23.418Z,1.60
2023-12-16T03:18:50.188Z,1.10
2023-12-16T03:21:17.095Z,1.60
2023-12-16T03:23:44.751Z,2.30
2023-12-16T03:26:11.344Z,1.10
2023-12-16T03:28:37.943Z,0.95
2023-12-16T03:31:05.998Z,0.80
2023-12-16T03:33:32.795Z,0.80
2023-12-16T03:36:00.456Z,0.93
2023-12-16T03:38:27.082Z,1.00
2023-12-16T03:40:54.808Z,0.80
2023-12-16T03:43:21.507Z,0.80
2023-12-16T03:45:49.257Z,0.90
2023-12-16T03:48:15.916Z,1.00
2023-12-16T03:50:42.628Z,0.80
2023-12-16T03:53:11.260Z,0.73
2023-12-16T03:55:37.836Z,0.90
2023-12-16T03:58:04.490Z,0.73
2023-12-16T04:00:32.114Z,0.82
2023-12-16T04:02:58.789Z,0.75
2023-12-16T04:05:26.501Z,0.60
2023-12-16T04:07:53.093Z,1.02
2023-12-16T04:10:20.735Z,0.80
2023-12-16T04:12:47.394Z,0.80
2023-12-16T04:15:14.068Z,0.93
2023-12-16T04:17:42.111Z,1.00
2023-12-16T04:20:09.284Z,0.60
2023-12-16T04:22:36.950Z,0.82
2023-12-16T04:25:03.805Z,0.88
2023-12-16T04:27:30.532Z,0.80
2023-12-16T04:29:58.208Z,0.75
2023-12-16T04:32:26.109Z,1.05
2023-12-16T04:34:54.706Z,0.77
2023-12-16T04:37:21.412Z,0.90
2023-12-16T04:39:48.033Z,0.90
2023-12-16T04:42:15.715Z,0.90
2023-12-16T04:44:42.263Z,0.90
2023-12-16T04:47:09.914Z,1.50
2023-12-16T04:49:36.586Z,0.80
2023-12-16T04:52:03.449Z,0.77
2023-12-16T04:54:31.203Z,0.73
2023-12-16T04:56:57.757Z,0.65
2023-12-16T04:59:24.332Z,0.70
2023-12-16T05:01:52.074Z,0.85
2023-12-16T05:04:19.853Z,0.70
2023-12-16T05:06:47.564Z,0.80
2023-12-16T05:09:14.157Z,0.90
2023-12-16T05:11:41.827Z,0.70
2023-12-16T05:14:08.444Z,0.77
2023-12-16T05:16:35.046Z,0.52
2023-12-16T05:19:02.837Z,0.70
2023-12-16T05:21:29.515Z,0.75
2023-12-16T05:23:57.161Z,0.60
2023-12-16T05:26:23.759Z,0.60
2023-12-16T05:28:51.368Z,0.40
2023-12-16T05:31:18.097Z,0.45
2023-12-16T05:33:44.879Z,0.55
2023-12-16T05:36:12.865Z,0.40
2023-12-16T05:38:39.444Z,0.40
2023-12-16T05:41:07.148Z,0.40
2023-12-16T05:43:33.873Z,0.52
2023-12-16T05:52:45.101Z,0.30
2023-12-16T05:55:11.868Z,0.38
2023-12-16T05:57:39.052Z,0.30
2023-12-16T06:00:07.624Z,0.30
2023-12-16T06:02:34.222Z,0.40
2023-12-16T06:05:00.891Z,0.40
2023-12-16T06:07:28.617Z,0.50
2023-12-16T06:09:55.249Z,0.30
2023-12-16T06:12:22.927Z,0.40
2023-12-16T06:14:49.525Z,0.30
2023-12-16T06:17:17.234Z,0.35
2023-12-16T06:19:43.904Z,0.40
2023-12-16T06:22:10.541Z,0.45
2023-12-16T06:24:38.291Z,0.32
2023-12-16T06:27:05.226Z,0.30
2023-12-16T06:29:32.852Z,0.35
2023-12-16T06:31:59.737Z,0.30
2023-12-16T06:34:27.417Z,0.47
2023-12-16T06:36:55.136Z,0.50
2023-12-16T06:39:21.737Z,0.30
2023-12-16T06:41:49.333Z,0.50
2023-12-16T06:44:17.002Z,0.40
2023-12-16T06:46:43.618Z,0.32
2023-12-16T06:49:11.419Z,0.32
2023-12-16T06:51:38.082Z,0.38
2023-12-16T06:54:05.751Z,0.30
2023-12-16T06:56:32.380Z,0.50
2023-12-16T06:58:58.949Z,0.30
2023-12-16T07:01:26.740Z,0.10
2023-12-16T07:03:53.485Z,0.40
2023-12-16T07:06:20.143Z,0.20
2023-12-16T07:08:47.855Z,0.30
2023-12-16T07:11:14.446Z,0.30
2023-12-16T07:13:42.075Z,0.30
2023-12-16T07:16:09.198Z,0.20
2023-12-16T07:18:35.885Z,0.25
2023-12-16T07:21:07.559Z,0.30
2023-12-16T07:23:35.181Z,0.30
2023-12-16T07:26:02.094Z,0.22
2023-12-16T07:28:29.206Z,0.60
2023-12-16T07:30:57.004Z,0.32
2023-12-16T07:33:23.787Z,0.40
2023-12-16T07:35:53.290Z,0.30
2023-12-16T07:38:21.329Z,0.40
2023-12-16T07:40:49.032Z,0.40
2023-12-16T07:43:15.783Z,0.40
2023-12-16T07:45:42.437Z,0.38
2023-12-16T07:48:10.720Z,0.30
2023-12-16T07:50:38.498Z,0.38
2023-12-16T07:53:06.142Z,0.40
2023-12-16T07:55:33.919Z,0.50
2023-12-16T07:58:01.651Z,0.40
2023-12-16T08:00:28.224Z,0.50
2023-12-16T08:02:55.859Z,0.60
2023-12-16T08:05:23.590Z,0.60
2023-12-16T08:07:50.161Z,0.35
2023-12-16T08:10:17.825Z,0.50
2023-12-16T08:12:44.466Z,0.40
2023-12-16T08:15:12.084Z,0.43
2023-12-16T08:17:38.961Z,0.60
2023-12-16T08:20:06.977Z,0.50
2023-12-16T08:22:35.534Z,0.30
2023-12-16T08:25:02.603Z,0.30
2023-12-16T08:27:29.288Z,0.20
2023-12-16T08:29:56.931Z,0.30
2023-12-16T08:32:23.644Z,0.28
2023-12-16T08:34:50.327Z,0.40
2023-12-16T08:37:17.998Z,0.47
2023-12-16T08:39:45.681Z,0.40
2023-12-16T08:42:12.288Z,0.47
2023-12-16T08:44:39.916Z,0.30
2023-12-16T08:47:06.544Z,0.30
2023-12-16T08:49:33.161Z,0.60
2023-12-16T08:52:00.950Z,0.50
2023-12-16T08:54:27.599Z,1.02
2023-12-16T08:56:55.269Z,0.60
2023-12-16T08:59:22.729Z,0.65
2023-12-16T09:01:50.689Z,0.90
2023-12-16T09:04:17.335Z,0.50
2023-12-16T09:06:43.902Z,0.55
2023-12-16T09:09:13.471Z,0.40
2023-12-16T09:11:46.656Z,0.45
2023-12-16T09:14:14.655Z,0.40
2023-12-16T09:16:42.382Z,0.28
2023-12-16T09:19:09.279Z,0.28
2023-12-16T09:21:36.051Z,0.30
2023-12-16T09:24:06.120Z,0.50
2023-12-16T09:26:32.851Z,0.20
2023-12-16T09:29:00.571Z,0.28
2023-12-16T09:31:28.354Z,0.30
2023-12-16T09:33:55.132Z,0.30
2023-12-16T09:36:22.943Z,0.20
2023-12-16T09:38:49.548Z,0.20
2023-12-16T09:41:23.707Z,0.30
2023-12-16T09:43:52.654Z,0.20
2023-12-16T09:46:25.967Z,0.22
2023-12-16T09:48:53.902Z,0.20
2023-12-16T09:51:25.378Z,0.20
2023-12-16T09:53:53.472Z,0.20
2023-12-16T09:56:21.289Z,0.30
2023-12-16T09:58:50.849Z,0.28
2023-12-16T10:01:18.790Z,0.20
2023-12-16T10:03:47.470Z,0.30
2023-12-16T10:06:14.482Z,0.28
2023-12-16T10:08:42.838Z,0.32
2023-12-16T10:11:13.513Z,0.30
2023-12-16T10:14:03.479Z,0.30
2023-12-16T10:16:30.531Z,0.20
2023-12-16T10:18:59.524Z,0.22
2023-12-16T10:21:30.914Z,0.20
2023-12-16T10:23:59.245Z,0.30
2023-12-16T10:26:27.060Z,0.40
2023-12-16T10:28:54.201Z,0.40
2023-12-16T10:31:22.954Z,0.20
2023-12-16T10:36:18.261Z,0.40
2023-12-16T10:38:44.847Z,0.30
2023-12-16T10:41:12.624Z,0.28
2023-12-16T10:43:39.475Z,0.30
2023-12-16T10:46:08.488Z,0.40
2023-12-16T10:48:38.632Z,0.20
2023-12-16T10:51:06.602Z,0.20
2023-12-16T10:53:47.506Z,0.20
2023-12-16T10:56:25.419Z,0.20
2023-12-16T10:59:14.456Z,1.40
2023-12-16T11:01:46.430Z,0.40
2023-12-16T11:04:22.129Z,1.90
2023-12-16T11:06:59.481Z,0.50
2023-12-16T11:09:26.626Z,0.47
2023-12-16T11:11:55.924Z,0.40
2023-12-16T11:14:25.029Z,0.80
2023-12-16T11:17:12.628Z,0.40
2023-12-16T11:19:45.552Z,0.20
2023-12-16T11:22:17.474Z,0.55
2023-12-16T11:24:45.541Z,0.30
2023-12-16T11:27:13.306Z,0.40
2023-12-16T11:29:43.741Z,0.30
2023-12-16T11:32:10.840Z,0.20
2023-12-16T11:34:49.198Z,0.20
2023-12-16T11:37:16.066Z,0.20
2023-12-16T11:39:44.375Z,0.20
2023-12-16T11:42:12.713Z,0.30
2023-12-16T11:48:01.977Z,0.38
2023-12-16T11:50:29.824Z,0.20
2023-12-16T11:52:56.630Z,0.20
2023-12-16T11:55:25.049Z,0.20
2023-12-16T11:57:51.654Z,0.28
2023-12-16T12:00:18.635Z,0.38
2023-12-16T12:02:46.316Z,0.32
2023-12-16T12:05:14.432Z,0.38
2023-12-16T12:07:42.222Z,0.40
2023-12-16T12:10:09.341Z,0.40
2023-12-16T12:12:36.041Z,0.45
2023-12-16T12:15:03.885Z,0.80
2023-12-16T12:17:31.733Z,1.60
2023-12-16T12:19:59.109Z,0.35
2023-12-16T12:22:26.221Z,0.50
2023-12-16T12:24:54.008Z,0.32
2023-12-16T12:27:21.718Z,0.63
2023-12-16T12:29:59.068Z,0.30
2023-12-16T12:32:29.398Z,1.23
2023-12-16T12:35:00.690Z,0.50
2023-12-16T12:37:36.898Z,0.52
2023-12-16T12:40:13.605Z,0.40
2023-12-16T12:42:55.265Z,0.32
2023-12-16T12:45:38.211Z,1.10
2023-12-16T12:48:19.571Z,0.50
2023-12-16T12:50:47.251Z,0.40
2023-12-16T12:53:25.285Z,0.20
2023-12-16T12:55:53.985Z,0.55
2023-12-16T12:58:28.161Z,0.28
2023-12-16T13:00:59.561Z,0.40
2023-12-16T13:03:28.636Z,0.40
2023-12-16T13:05:57.077Z,0.35
2023-12-16T13:08:25.717Z,0.40
2023-12-16T13:10:53.512Z,0.50
2023-12-16T13:13:21.398Z,0.50
2023-12-16T13:15:54.653Z,0.30
2023-12-16T13:18:26.137Z,0.50
2023-12-16T13:20:54.013Z,0.40
2023-12-16T13:23:20.841Z,0.43
2023-12-16T13:25:48.464Z,0.40
2023-12-16T13:28:15.119Z,0.30
2023-12-16T13:30:43.287Z,0.40
2023-12-16T13:33:10.031Z,0.43
2023-12-16T13:35:37.898Z,0.50
2023-12-16T13:38:04.524Z,0.30
2023-12-16T13:40:31.116Z,0.50
2023-12-16T13:42:58.832Z,0.65
2023-12-16T13:45:25.432Z,0.40
2023-12-16T13:47:52.108Z,0.40
2023-12-16T13:50:19.818Z,0.30
2023-12-16T13:52:46.380Z,0.50
2023-12-16T13:55:12.956Z,0.40
2023-12-16T13:57:40.974Z,0.30
2023-12-16T14:00:08.214Z,0.40
2023-12-16T14:02:36.120Z,0.40
2023-12-16T14:05:03.245Z,0.63
2023-12-16T14:07:31.380Z,0.80
2023-12-16T14:09:58.105Z,0.80
2023-12-16T14:12:24.688Z,0.80
2023-12-16T14:14:52.452Z,0.68
2023-12-16T14:17:20.130Z,0.40
2023-12-16T14:19:46.770Z,0.70
2023-12-16T14:22:13.397Z,0.50
2023-12-16T14:24:40.990Z,0.80
2023-12-16T14:27:08.742Z,0.50
2023-12-16T14:29:36.462Z,0.70
2023-12-16T14:32:03.123Z,0.70
2023-12-16T14:34:29.920Z,1.63
2023-12-16T14:36:57.658Z,0.43
2023-12-16T14:39:24.239Z,1.13
2023-12-16T14:41:52.082Z,1.80
2023-12-16T14:44:18.697Z,1.63
2023-12-16T14:46:46.329Z,1.20
2023-12-16T14:49:13.166Z,1.10
2023-12-16T14:51:41.180Z,1.25
2023-12-16T14:54:08.920Z,0.80
2023-12-16T14:56:35.586Z,0.82
2023-12-16T14:59:03.334Z,0.90
2023-12-16T15:01:29.947Z,0.85
2023-12-16T15:03:57.658Z,0.82
2023-12-16T15:06:30.369Z,0.70
2023-12-16T15:09:00.053Z,0.90
2023-12-16T15:13:53.453Z,0.60
2023-12-16T15:16:21.719Z,1.00
2023-12-16T15:18:49.372Z,1.13
2023-12-16T15:21:16.642Z,0.77
2023-12-16T15:23:44.358Z,0.80
2023-12-16T15:26:12.024Z,0.70
2023-12-16T15:28:38.616Z,0.65
2023-12-16T15:31:05.394Z,0.70
2023-12-16T15:33:34.333Z,0.70
2023-12-16T15:36:02.142Z,0.60
2023-12-16T15:38:28.749Z,0.55
2023-12-16T15:40:56.379Z,0.65
2023-12-16T15:43:22.973Z,0.70
2023-12-16T15:45:49.545Z,0.60
2023-12-16T15:48:17.408Z,0.70
2023-12-16T15:50:45.230Z,1.20
2023-12-16T15:53:12.717Z,0.80
2023-12-16T15:55:40.376Z,4.47
2023-12-16T15:58:06.955Z,1.40
2023-12-16T16:00:34.607Z,0.98
2023-12-16T16:03:01.321Z,1.10
2023-12-16T16:05:29.062Z,1.33
2023-12-16T16:07:56.830Z,1.23
2023-12-16T16:10:24.482Z,0.80
2023-12-16T16:12:51.097Z,0.80
2023-12-16T16:15:19.536Z,0.95
2023-12-16T16:17:48.005Z,0.93
2023-12-16T16:20:16.797Z,0.77
2023-12-16T16:22:44.298Z,0.68
2023-12-16T16:25:12.226Z,0.80
2023-12-16T16:27:40.356Z,0.90
2023-12-16T16:30:10.288Z,1.10
2023-12-16T16:32:38.167Z,1.23
2023-12-16T16:35:06.386Z,1.33
2023-12-16T16:37:34.084Z,1.60
2023-12-16T16:40:00.988Z,1.67
2023-12-16T16:42:29.427Z,1.23
2023-12-16T16:44:56.487Z,1.05
2023-12-16T16:47:23.538Z,0.90
2023-12-16T16:49:51.463Z,1.17
2023-12-16T16:52:18.058Z,1.15
2023-12-16T16:54:44.837Z,1.13
2023-12-16T16:57:13.171Z,1.30
2023-12-16T16:59:41.350Z,1.23
2023-12-16T17:02:08.533Z,1.40
2023-12-16T17:04:35.857Z,1.63
2023-12-16T17:07:03.760Z,1.70
2023-12-16T17:09:31.439Z,1.90
2023-12-16T17:11:58.121Z,1.70
2023-12-16T17:14:24.769Z,1.48
2023-12-16T17:16:52.471Z,3.20
2023-12-16T17:19:19.539Z,2.90
2023-12-16T17:21:47.453Z,1.20
2023-12-16T17:24:15.114Z,1.20
2023-12-16T17:26:41.826Z,1.13
2023-12-16T17:29:09.519Z,1.20
2023-12-16T17:31:36.152Z,1.27
2023-12-16T17:34:02.839Z,1.13
2023-12-16T17:36:30.527Z,0.95
2023-12-16T17:38:57.115Z,1.23
2023-12-16T17:41:24.749Z,0.90
2023-12-16T17:43:51.311Z,0.93
2023-12-16T17:46:19.079Z,0.98
2023-12-16T17:48:45.814Z,1.15
2023-12-16T17:51:12.565Z,1.30
2023-12-16T17:53:41.296Z,1.65
2023-12-16T17:56:08.333Z,1.63
2023-12-16T17:58:37.157Z,1.52
2023-12-16T18:01:04.365Z,1.30
2023-12-16T18:03:32.331Z,1.13
2023-12-16T18:05:59.270Z,1.63
2023-12-16T18:08:27.003Z,1.60
2023-12-16T18:10:53.624Z,1.60
2023-12-16T18:13:20.663Z,1.17
2023-12-16T18:15:48.345Z,1.30
2023-12-16T18:18:15.030Z,1.20
2023-12-16T18:20:59.686Z,1.88
2023-12-16T18:23:29.835Z,1.33
2023-12-16T18:25:56.712Z,1.48
2023-12-16T18:28:23.320Z,1.75
2023-12-16T18:30:51.626Z,2.40
2023-12-16T18:33:19.536Z,1.17
2023-12-16T18:35:46.198Z,1.70
2023-12-16T18:38:12.825Z,1.65
2023-12-16T18:40:40.478Z,1.15
2023-12-16T18:43:07.097Z,1.23
2023-12-16T18:45:34.799Z,0.98
2023-12-16T18:48:01.706Z,1.80
2023-12-16T18:50:28.404Z,1.20
2023-12-16T18:52:56.069Z,1.92
2023-12-16T18:55:23.722Z,2.70
2023-12-16T18:57:50.517Z,1.77
2023-12-16T19:00:18.825Z,1.17
2023-12-16T19:02:46.738Z,1.27
2023-12-16T19:05:13.501Z,1.55
2023-12-16T19:07:41.322Z,1.80
2023-12-16T19:10:09.177Z,2.80
2023-12-16T19:12:35.856Z,4.05
2023-12-16T19:15:04.350Z,1.70
2023-12-16T19:17:31.546Z,1.80
2023-12-16T19:20:01.273Z,1.90
2023-12-16T19:22:27.834Z,2.00
2023-12-16T19:24:54.442Z,1.52
2023-12-16T19:27:22.819Z,1.30
2023-12-16T19:29:49.759Z,1.10
2023-12-16T19:32:17.559Z,1.23
2023-12-16T19:34:45.473Z,1.35
2023-12-16T19:37:12.076Z,1.20
2023-12-16T19:39:39.737Z,1.00
2023-12-16T19:42:06.546Z,1.10
2023-12-16T19:44:34.206Z,1.08
2023-12-16T19:47:00.804Z,1.13
2023-12-16T19:49:27.656Z,1.40
2023-12-16T19:51:55.480Z,1.25
2023-12-16T19:54:22.107Z,1.00
2023-12-16T19:56:48.762Z,2.08
2023-12-16T19:59:16.370Z,2.83
2023-12-16T20:01:42.980Z,2.60
2023-12-16T20:04:10.670Z,2.10
2023-12-16T20:06:37.384Z,0.80
2023-12-16T20:09:05.039Z,1.02
2023-12-16T20:11:31.632Z,1.23
2023-12-16T20:13:59.255Z,1.60
2023-12-16T20:16:25.838Z,1.80
2023-12-16T20:18:52.529Z,1.50
2023-12-16T20:21:20.286Z,1.35
2023-12-16T20:23:46.950Z,1.30
2023-12-16T20:26:15.158Z,1.52
2023-12-16T20:28:41.728Z,0.90
2023-12-16T20:31:09.512Z,1.00
2023-12-16T20:33:36.400Z,1.17
2023-12-16T20:36:03.206Z,2.13
2023-12-16T20:38:30.853Z,0.63
2023-12-16T20:40:57.476Z,1.10
2023-12-16T20:43:25.158Z,1.20
2023-12-16T20:45:51.741Z,1.00
2023-12-16T20:48:18.488Z,0.73
2023-12-16T20:50:46.216Z,0.80
2023-12-16T20:53:12.864Z,1.05
2023-12-16T20:55:40.499Z,0.70
2023-12-16T20:58:07.066Z,0.80
2023-12-16T21:00:34.766Z,0.63
2023-12-16T21:03:02.566Z,0.88
2023-12-16T21:05:29.282Z,0.82
2023-12-16T21:07:56.954Z,1.10
2023-12-16T21:10:23.532Z,1.20
2023-12-16T21:12:50.111Z,1.05
2023-12-16T21:15:18.005Z,2.70
2023-12-16T21:17:45.046Z,2.92
2023-12-16T21:20:13.004Z,0.90
2023-12-16T21:22:39.642Z,0.70
2023-12-16T21:25:08.021Z,0.70
2023-12-16T21:27:35.853Z,0.90
2023-12-16T21:30:02.660Z,0.90
2023-12-16T21:32:30.589Z,0.85
2023-12-16T21:34:57.377Z,0.93
2023-12-16T21:37:24.077Z,0.68
2023-12-16T21:39:51.764Z,0.90
2023-12-16T21:42:18.407Z,0.80
2023-12-16T21:44:48.200Z,0.80
2023-12-16T21:47:15.046Z,0.80
2023-12-16T21:49:41.694Z,0.50
2023-12-16T21:52:09.401Z,0.70
2023-12-16T21:54:36.033Z,0.88
2023-12-16T21:57:03.682Z,0.75
2023-12-16T21:59:30.245Z,0.70
2023-12-16T22:01:56.816Z,1.25
2023-12-16T22:04:24.482Z,0.70
2023-12-16T22:06:51.082Z,0.70
2023-12-16T22:09:17.764Z,0.45
2023-12-16T22:11:45.535Z,0.52
2023-12-16T22:14:12.166Z,0.80
2023-12-16T22:16:39.772Z,0.50
2023-12-16T22:19:06.495Z,0.50
2023-12-16T22:21:34.374Z,0.52
2023-12-16T22:24:01.034Z,0.68
2023-12-16T22:26:27.659Z,0.50
2023-12-16T22:28:55.319Z,0.57
2023-12-16T22:31:21.973Z,0.60
2023-12-16T22:33:48.723Z,1.00
2023-12-16T22:36:16.513Z,0.40
2023-12-16T22:38:43.156Z,0.30
2023-12-16T22:41:10.805Z,0.70
2023-12-16T22:43:37.388Z,0.57
2023-12-16T22:46:04.114Z,0.70
2023-12-16T22:48:32.122Z,0.45
2023-12-16T22:50:59.008Z,0.65
2023-12-16T22:53:26.835Z,0.40
2023-12-16T22:55:54.479Z,0.30
2023-12-16T22:58:28.526Z,0.40
2023-12-16T23:00:59.420Z,0.35
2023-12-16T23:03:26.105Z,0.50
2023-12-16T23:05:52.713Z,0.80
2023-12-16T23:08:20.342Z,0.60
2023-12-16T23:10:46.959Z,0.40
2023-12-16T23:13:14.606Z,0.80
2023-12-16T23:15:41.162Z,0.82
2023-12-16T23:18:10.328Z,0.40
2023-12-16T23:20:38.145Z,1.20
2023-12-16T23:23:04.741Z,0.40
2023-12-16T23:25:31.296Z,0.40
2023-12-16T23:27:58.947Z,0.70
2023-12-16T23:30:25.599Z,0.50
2023-12-16T23:32:54.378Z,0.40
2023-12-16T23:37:47.759Z,0.40
2023-12-16T23:40:15.440Z,0.55
2023-12-16T23:42:42.163Z,1.02
2023-12-16T23:45:10.155Z,1.00
2023-12-16T23:47:36.935Z,0.80
2023-12-16T23:50:03.769Z,1.60
2023-12-16T23:52:31.417Z,1.70
2023-12-16T23:54:58.021Z,1.80
2023-12-16T23:57:25.802Z,1.95
2023-12-16T23:59:52.435Z,2.13
